Julian, WV

2:36 AM EDT on August 30, 2014 (GMT -0400)
Yeager Airport | Change Station
CLOSE
Current Station
Airport
Location: Charleston,
Elevation: 981 ft
Nearby Weather Stations

Elev 981 ft 38.38 °N, 81.59 °W | Updated 42 minutes ago

Mostly Cloudy
Mostly Cloudy
71 °F
Feels Like 71 °F
N
0
Wind Variable Wind from North

Today
High -- | Low -- °F
--% Chance of Precip.
Yesterday
High -- | Low -- °F
Precip. -- in
6:55 AM 8:00 PM
Waxing Crescent, 19% visible
Pressure 30.09 in
Visibility 10.0 miles
Clouds Few 200 ft
Mostly Cloudy 11000 ft
Dew Point 70 °F
Humidity 96%
Rainfall 0.00 in
Snow Depth Not available.
UV 0 out of 12
Pollen 9.40 out of 12
Air Quality Not available.
Flu Activity Not available.
METAR KCRW 300554Z 00000KT 10SM FEW002 BKN110 22/21 A3011 RMK AO2 SLP187 VLY FG T02170211 10272 20211 53007 $

More Conditions Fewer Conditions

Pressure 30.09 in
Visibility 10.0 miles
Clouds Few 200 ft
Mostly Cloudy 11000 ft
Dew Point 70 °F
Humidity 96%
Rainfall 0.00 in
Snow Depth Not available.
UV 0 out of 12
Pollen 9.40 out of 12
Air Quality Not available.
Flu Activity Not available.
METAR KCRW 300554Z 00000KT 10SM FEW002 BKN110 22/21 A3011 RMK AO2 SLP187 VLY FG T02170211 10272 20211 53007 $

More Conditions Fewer Conditions

10-Day Weather Forecast

Almanac

Astronomy

Aug. 30, 2014 Rise Set
Actual Time 6:55 AM EDT 8:00 PM EDT
Civil Twilight 6:28 AM EDT 8:27 PM EDT
Nautical Twilight 5:55 AM EDT 8:59 PM EDT
Astronomical Twilight 5:22 AM EDT 9:32 PM EDT
Moon 11:36 AM EDT 10:38 PM EDT
Length of Visible Light 13h 58m
Length of Day
13h 04m
Tomorrow will be 2m 21s shorter.
Waxing Crescent, 19% of the Moon is Illuminated
Today
Waxing Crescent
Sep 2
First Quarter
Sep 8
Full
Sep 15
Last Quarter
Sep 24
New

Today's Extremes

State Highs State Lows

Community

WunderPhotos

Upload Photos

1,748,460 photos uploaded!

Nearby

Snow Depth

Station Depth Elevation
No new snow has been reported.

Earthquake Activity

City Distance Mag. Time & Date
No recent earthquake activity has been reported nearby.
Minimum magnitude displayed is 2.5.

Coastal Water Temperatures

Place Temperature
No Stations Reporting

Nearby Weather Stations